Terminal Aerodrome Forecast
Issued by NWS Omaha/Valley, NE

Home | Current Version | Previous Version | Graphics & Text | Print | Product List | Glossary On
Versions: 1 2 3 4 5 6 7 8 9 10 11 12 13 14 15 16 17 18 19 20 21 22 23 24 25 26 27 28 29 30 31 32 33 34 35 36 37 38
668
FTUS43 KOAX 232320
TAFOFK
TAF
KOFK 232320Z 2400/2424 11005KT P6SM FEW250
     FM241200 VRB03KT P6SM BKN110
     FM241800 33006KT P6SM OVC060 PROB30 2418/2424 4SM -SHRA BKN035=

USA.gov is the U.S. government's official web portal to all federal, state and local government web resources and services.